Time;durP1;ratioP1;P1;durP2;ratioP2;P2;SDS_P1;SDS_P2;PMS_P1;PMS_P2;Temp;Humidity;BMP_temperature;BMP_pressure;BME280_temperature;BME280_humidity;BME280_pressure;Samples;Min_cycle;Max_cycle;Signal;HPM_P1;HPM_P2
2023/10/18 00:01:18;;;;;;;17.77;4.40;;;10.90;99.90;;;;;;5074150;28;20387;-77
2023/10/18 00:03:44;;;;;;;17.38;3.97;;;10.90;99.90;;;;;;5075191;28;20020;-76
2023/10/18 00:06:15;;;;;;;24.13;4.70;;;10.90;99.90;;;;;;5074547;28;20104;-77
2023/10/18 00:08:45;;;;;;;21.02;4.50;;;10.90;99.90;;;;;;5055480;28;20471;-77
2023/10/18 00:11:12;;;;;;;16.05;4.35;;;10.90;99.90;;;;;;5073433;28;20115;-77
2023/10/18 00:13:38;;;;;;;16.90;4.45;;;10.90;99.90;;;;;;5073213;28;20360;-77
2023/10/18 00:16:06;;;;;;;15.43;4.22;;;10.90;99.90;;;;;;5075029;28;20031;-79
2023/10/18 00:18:33;;;;;;;12.90;3.97;;;10.90;99.90;;;;;;5075922;28;20036;-79
2023/10/18 00:21:04;;;;;;;17.75;4.32;;;10.90;99.90;;;;;;5073488;28;20155;-79
2023/10/18 00:23:31;;;;;;;16.13;3.72;;;10.90;99.90;;;;;;5073776;28;20032;-81
2023/10/18 00:25:59;;;;;;;18.48;4.57;;;10.90;99.90;;;;;;5074763;28;20098;-78
2023/10/18 00:28:26;;;;;;;17.80;4.88;;;10.90;99.90;;;;;;5054512;28;20039;-78
2023/10/18 00:30:52;;;;;;;21.55;4.30;;;10.90;99.90;;;;;;5073156;28;20031;-75
2023/10/18 00:33:19;;;;;;;24.33;5.05;;;10.90;99.90;;;;;;5073811;28;20025;-75
2023/10/18 00:35:47;;;;;;;18.10;4.30;;;10.90;99.90;;;;;;5072769;28;20044;-75
2023/10/18 00:38:16;;;;;;;14.68;4.03;;;10.90;99.90;;;;;;5074951;28;20102;-75
2023/10/18 00:40:45;;;;;;;19.08;3.88;;;11.00;99.90;;;;;;5073623;28;20039;-77
2023/10/18 00:43:22;;;;;;;26.60;4.72;;;10.90;99.90;;;;;;5073177;28;20020;-77
2023/10/18 00:45:53;;;;;;;21.95;4.50;;;11.00;99.90;;;;;;5072478;28;20109;-76
2023/10/18 00:48:26;;;;;;;15.60;4.07;;;11.00;99.90;;;;;;5073240;28;20093;-76
2023/10/18 00:50:52;;;;;;;22.42;3.92;;;11.00;99.90;;;;;;5072419;28;20028;-75
2023/10/18 00:53:23;;;;;;;20.52;4.57;;;11.10;99.90;;;;;;5055440;28;20075;-75
2023/10/18 00:55:57;;;;;;;21.55;4.82;;;11.00;99.90;;;;;;5072857;28;20043;-75
2023/10/18 00:58:24;;;;;;;14.65;4.22;;;11.10;99.90;;;;;;5072488;28;20077;-77
2023/10/18 01:00:54;;;;;;;13.43;4.38;;;11.10;99.90;;;;;;5071899;28;20025;-74
2023/10/18 01:03:29;;;;;;;29.35;4.78;;;11.00;99.90;;;;;;5072140;28;20033;-75
2023/10/18 01:06:07;;;;;;;21.23;4.32;;;11.10;99.90;;;;;;5072755;28;20123;-75
2023/10/18 01:08:37;;;;;;;17.98;4.18;;;11.10;99.90;;;;;;5057880;28;20024;-76
2023/10/18 01:11:06;;;;;;;23.67;4.40;;;11.10;99.90;;;;;;5075804;28;20028;-75
2023/10/18 01:13:37;;;;;;;14.23;4.07;;;11.20;99.90;;;;;;5073091;28;20029;-78
2023/10/18 01:16:13;;;;;;;14.27;4.10;;;11.20;99.90;;;;;;5072215;28;20183;-77
2023/10/18 01:18:42;;;;;;;15.95;3.83;;;11.20;99.90;;;;;;5071710;28;20028;-77
2023/10/18 01:21:19;;;;;;;13.18;3.30;;;11.20;99.90;;;;;;5072363;28;20032;-76
2023/10/18 01:23:53;;;;;;;11.98;3.72;;;11.20;99.90;;;;;;5071666;28;20092;-75
2023/10/18 01:26:27;;;;;;;9.57;3.50;;;11.30;99.90;;;;;;5072262;28;20035;-75
2023/10/18 01:28:54;;;;;;;13.05;3.33;;;11.20;99.90;;;;;;5077192;28;20017;-76
2023/10/18 01:31:21;;;;;;;13.43;3.67;;;11.30;99.90;;;;;;5080621;28;20020;-76
2023/10/18 01:33:48;;;;;;;16.80;3.78;;;11.30;99.90;;;;;;5076372;28;20033;-75
2023/10/18 01:36:16;;;;;;;14.55;3.20;;;11.30;99.90;;;;;;5073848;28;20058;-76
2023/10/18 01:38:48;;;;;;;16.80;4.88;;;11.40;99.90;;;;;;5074549;28;20517;-77
2023/10/18 01:41:28;;;;;;;16.50;3.37;;;11.40;99.90;;;;;;5071775;28;20108;-77
2023/10/18 01:44:18;;;;;;;19.50;3.90;;;11.50;99.90;;;;;;5072135;28;20557;-76
2023/10/18 01:46:52;;;;;;;9.15;3.50;;;11.50;99.90;;;;;;5071486;28;20064;-77
2023/10/18 01:49:21;;;;;;;13.73;4.30;;;11.50;99.90;;;;;;5071715;28;20449;-77
2023/10/18 01:51:53;;;;;;;10.68;3.70;;;11.50;99.90;;;;;;5070979;28;20020;-77
2023/10/18 01:54:25;;;;;;;8.85;3.20;;;11.50;99.90;;;;;;5072055;28;20056;-76
2023/10/18 01:56:54;;;;;;;8.68;3.35;;;11.60;99.90;;;;;;5071477;28;20036;-77
2023/10/18 01:59:27;;;;;;;12.57;3.58;;;11.60;99.90;;;;;;5071850;28;20028;-76
2023/10/18 02:01:53;;;;;;;14.20;3.55;;;11.60;99.90;;;;;;5071459;28;20029;-75
2023/10/18 02:04:25;;;;;;;15.73;3.95;;;11.60;99.90;;;;;;5071503;28;20487;-76
2023/10/18 02:06:59;;;;;;;13.35;3.53;;;11.60;99.90;;;;;;5053205;28;20020;-77
2023/10/18 02:09:48;;;;;;;11.57;3.95;;;11.60;99.90;;;;;;5072686;28;20082;-76
2023/10/18 02:12:21;;;;;;;13.73;3.33;;;11.60;99.90;;;;;;5071897;28;20055;-76
2023/10/18 02:14:49;;;;;;;16.40;3.40;;;11.60;99.90;;;;;;5072526;28;20032;-77
2023/10/18 02:17:18;;;;;;;12.27;3.55;;;11.60;99.90;;;;;;5071441;28;20024;-77
2023/10/18 02:19:44;;;;;;;14.70;3.85;;;11.60;99.90;;;;;;5071482;28;20036;-77
2023/10/18 02:22:13;;;;;;;11.00;3.47;;;11.60;99.90;;;;;;5071083;28;20391;-77
2023/10/18 02:24:42;;;;;;;8.55;3.22;;;11.70;99.90;;;;;;5071225;28;20124;-79
2023/10/18 02:27:09;;;;;;;10.60;2.70;;;11.70;99.90;;;;;;5074080;28;20506;-77
2023/10/18 02:29:35;;;;;;;13.48;3.38;;;11.70;99.90;;;;;;5071720;28;20021;-79
2023/10/18 02:32:21;;;;;;;10.80;3.17;;;11.70;99.90;;;;;;5072616;28;20024;-76
2023/10/18 02:34:47;;;;;;;11.43;3.45;;;11.70;99.90;;;;;;5072531;28;20106;-77
2023/10/18 02:37:15;;;;;;;9.45;3.63;;;11.70;99.90;;;;;;5072493;28;20082;-77
2023/10/18 02:39:41;;;;;;;12.43;3.22;;;11.70;99.90;;;;;;5071035;28;20035;-78
2023/10/18 02:42:07;;;;;;;13.18;3.53;;;11.70;99.90;;;;;;5072213;28;20028;-77
2023/10/18 02:44:35;;;;;;;12.25;3.80;;;11.70;99.90;;;;;;5070623;28;20114;-76
2023/10/18 02:47:22;;;;;;;16.13;3.92;;;11.80;99.90;;;;;;5070387;28;20033;-77
2023/10/18 02:49:51;;;;;;;11.65;3.20;;;11.80;99.90;;;;;;5071267;28;20032;-77
2023/10/18 02:52:17;;;;;;;12.88;3.20;;;11.80;99.90;;;;;;5071121;28;20387;-76
2023/10/18 02:54:45;;;;;;;6.35;2.70;;;11.90;99.90;;;;;;5071201;28;20044;-77
2023/10/18 02:57:13;;;;;;;13.07;4.03;;;11.90;99.90;;;;;;5071824;28;20028;-75
2023/10/18 02:59:41;;;;;;;11.32;3.70;;;11.90;99.90;;;;;;5070347;28;20052;-79
2023/10/18 03:02:17;;;;;;;17.15;3.38;;;11.90;99.90;;;;;;5070434;28;20028;-76
2023/10/18 03:04:43;;;;;;;11.13;3.55;;;12.00;99.90;;;;;;5076738;28;20037;-76
2023/10/18 03:07:13;;;;;;;12.38;3.03;;;12.00;99.90;;;;;;5081310;28;20024;-77
2023/10/18 03:09:39;;;;;;;12.90;3.55;;;11.90;99.90;;;;;;5072741;28;20032;-78
2023/10/18 03:12:15;;;;;;;16.25;3.70;;;11.90;99.90;;;;;;5070619;28;20029;-76
2023/10/18 03:14:54;;;;;;;15.75;4.20;;;11.90;99.90;;;;;;5070605;28;20110;-77
2023/10/18 03:17:23;;;;;;;15.43;3.53;;;11.90;99.90;;;;;;5072963;28;20038;-76
2023/10/18 03:19:56;;;;;;;14.45;4.32;;;11.80;99.90;;;;;;5069818;28;20115;-76
2023/10/18 03:22:26;;;;;;;9.55;3.92;;;11.80;99.90;;;;;;5070533;28;20047;-76
2023/10/18 03:24:54;;;;;;;10.25;3.35;;;11.80;99.90;;;;;;5069995;28;20351;-77
2023/10/18 03:27:20;;;;;;;14.57;4.05;;;11.80;99.90;;;;;;5070833;28;20028;-76
2023/10/18 03:29:46;;;;;;;13.02;3.85;;;11.80;99.90;;;;;;5070735;28;20104;-77
2023/10/18 03:32:15;;;;;;;14.55;3.78;;;11.80;99.90;;;;;;5070095;28;20067;-76
2023/10/18 03:34:43;;;;;;;9.98;3.17;;;11.90;99.90;;;;;;5069527;28;20041;-78
2023/10/18 03:37:18;;;;;;;12.45;3.58;;;11.90;99.90;;;;;;5070696;28;20027;-77
2023/10/18 03:39:47;;;;;;;8.50;3.65;;;11.80;99.90;;;;;;5069644;28;20044;-77
2023/10/18 03:42:26;;;;;;;12.60;4.00;;;11.80;99.90;;;;;;5069551;28;20032;-75
2023/10/18 03:44:52;;;;;;;11.45;3.47;;;11.90;99.90;;;;;;5069913;28;20032;-75
2023/10/18 03:47:24;;;;;;;13.40;3.65;;;11.90;99.90;;;;;;5072302;28;20502;-75
2023/10/18 03:49:53;;;;;;;12.25;3.35;;;11.90;99.90;;;;;;5069746;28;20028;-76
2023/10/18 03:52:21;;;;;;;16.13;3.67;;;11.90;99.90;;;;;;5071501;28;20040;-75
2023/10/18 03:57:37;;;;;;;14.98;3.88;;;12.00;99.90;;;;;;5070045;28;20117;-76
2023/10/18 04:03:12;;;;;;;14.52;3.50;;;11.90;99.90;;;;;;5052717;28;20200;-77
2023/10/18 04:05:43;;;;;;;14.82;3.65;;;11.90;99.90;;;;;;5073347;28;20067;-77
2023/10/18 04:08:13;;;;;;;13.02;4.50;;;12.00;99.90;;;;;;5073426;28;20020;-76
2023/10/18 04:10:40;;;;;;;14.23;4.00;;;12.00;99.90;;;;;;5073547;28;20087;-75
2023/10/18 04:13:13;;;;;;;9.15;3.40;;;12.00;99.90;;;;;;5072748;28;20031;-75
2023/10/18 04:15:45;;;;;;;15.90;4.07;;;12.00;99.90;;;;;;5073337;28;20039;-75
2023/10/18 04:18:12;;;;;;;11.18;3.45;;;12.00;99.90;;;;;;5055487;28;20167;-76
2023/10/18 04:20:42;;;;;;;9.30;3.88;;;12.00;99.90;;;;;;5072787;28;20028;-76
2023/10/18 04:23:15;;;;;;;13.75;3.70;;;12.00;99.90;;;;;;5072843;28;20482;-75
2023/10/18 04:25:42;;;;;;;12.32;3.53;;;12.10;99.90;;;;;;5073135;28;20044;-76
2023/10/18 04:28:08;;;;;;;11.90;4.57;;;12.10;99.90;;;;;;5072730;28;20039;-76
2023/10/18 04:30:37;;;;;;;16.90;4.07;;;12.10;99.90;;;;;;5072774;28;20070;-75
2023/10/18 04:35:44;;;;;;;14.95;3.83;;;12.10;99.90;;;;;;5073356;28;20048;-75
2023/10/18 04:38:23;;;;;;;17.67;4.40;;;12.10;99.90;;;;;;5073093;28;20028;-75
2023/10/18 04:40:55;;;;;;;14.68;4.93;;;12.10;99.90;;;;;;5073100;28;20344;-77
2023/10/18 04:43:25;;;;;;;14.15;4.47;;;12.10;99.90;;;;;;5073938;28;20052;-77
2023/10/18 04:45:56;;;;;;;19.08;4.47;;;12.10;99.90;;;;;;5072457;28;20060;-77
2023/10/18 04:48:59;;;;;;;15.27;4.50;;;12.10;99.90;;;;;;5073312;28;20028;-76
2023/10/18 04:51:08;;;;;;;9.98;3.78;;;12.10;99.90;;;;;;5072663;28;20105;-77
2023/10/18 04:53:34;;;;;;;8.63;4.00;;;12.20;99.90;;;;;;5073473;28;20078;-76
2023/10/18 04:56:02;;;;;;;12.82;3.97;;;12.20;99.90;;;;;;5073978;28;20391;-78
2023/10/18 04:58:29;;;;;;;16.42;4.85;;;12.20;99.90;;;;;;5073276;28;20027;-76
2023/10/18 05:01:01;;;;;;;14.55;4.68;;;12.30;99.90;;;;;;5073090;28;20023;-77
2023/10/18 05:03:33;;;;;;;21.85;4.13;;;12.30;99.90;;;;;;5072887;28;20036;-77
2023/10/18 05:05:59;;;;;;;17.13;4.30;;;12.30;99.90;;;;;;5072163;28;20047;-77
2023/10/18 05:08:29;;;;;;;15.15;4.18;;;12.30;99.90;;;;;;5072828;28;20033;-76
2023/10/18 05:11:04;;;;;;;14.65;4.35;;;12.30;99.90;;;;;;5072407;28;20107;-77
2023/10/18 05:13:32;;;;;;;18.88;4.05;;;12.40;99.90;;;;;;5073063;28;20016;-77
2023/10/18 05:16:02;;;;;;;14.18;4.88;;;12.40;99.90;;;;;;5071081;28;20447;-77
2023/10/18 05:18:30;;;;;;;16.15;4.40;;;12.40;99.90;;;;;;5074064;28;20032;-76
2023/10/18 05:20:58;;;;;;;16.65;4.68;;;12.40;99.90;;;;;;5071987;28;20115;-76
2023/10/18 05:23:25;;;;;;;16.38;4.70;;;12.60;99.90;;;;;;5072873;28;20107;-77
2023/10/18 05:26:08;;;;;;;13.73;4.63;;;12.50;99.90;;;;;;5072028;28;20029;-76
2023/10/18 05:28:47;;;;;;;;;;;12.60;99.90;;;;;;5072996;28;20024;-77
2023/10/18 05:33:49;;;;;;;18.83;3.80;;;12.50;99.90;;;;;;5072999;28;20032;-79
2023/10/18 05:43:46;;;;;;;18.38;4.72;;;12.50;99.90;;;;;;5072596;28;20035;-77
2023/10/18 05:46:11;;;;;;;14.40;4.97;;;12.50;99.90;;;;;;5073996;28;20040;-76
2023/10/18 05:48:41;;;;;;;23.05;5.82;;;12.50;99.90;;;;;;5081454;28;20027;-77
2023/10/18 05:54:00;;;;;;;23.60;5.90;;;12.50;99.90;;;;;;5071361;28;20593;-77
2023/10/18 05:56:30;;;;;;;16.30;4.57;;;12.50;99.90;;;;;;5071895;28;20033;-75
2023/10/18 06:01:44;;;;;;;15.25;5.03;;;12.60;99.90;;;;;;5051920;28;20446;-75
2023/10/18 06:04:10;;;;;;;16.10;5.57;;;12.60;99.90;;;;;;5032965;28;20033;-77
2023/10/18 06:06:37;;;;;;;11.10;4.40;;;12.60;99.90;;;;;;5051525;28;20029;-76
2023/10/18 06:09:26;;;;;;;12.85;4.38;;;12.50;99.90;;;;;;5051627;28;20032;-78
2023/10/18 06:11:52;;;;;;;24.45;5.05;;;12.50;99.90;;;;;;5050718;28;20033;-79
2023/10/18 06:14:18;;;;;;;21.25;4.68;;;12.60;99.90;;;;;;5051355;28;20037;-77
2023/10/18 06:16:51;;;;;;;16.55;5.43;;;12.60;99.90;;;;;;5033431;28;20029;-77
2023/10/18 06:19:22;;;;;;;17.38;4.68;;;12.60;99.90;;;;;;5051417;28;20025;-77
2023/10/18 06:22:13;;;;;;;17.48;5.30;;;12.60;99.90;;;;;;5050965;28;20033;-76
2023/10/18 06:24:38;;;;;;;20.77;5.30;;;12.60;99.90;;;;;;5050612;28;20041;-75
2023/10/18 06:27:04;;;;;;;15.70;4.93;;;12.60;99.90;;;;;;5049957;28;20047;-77
2023/10/18 06:29:35;;;;;;;15.90;5.43;;;12.70;99.90;;;;;;5050700;28;20028;-76
2023/10/18 06:32:04;;;;;;;13.65;5.40;;;12.70;99.90;;;;;;5049953;28;20029;-76
2023/10/18 06:34:32;;;;;;;20.67;5.68;;;12.60;99.90;;;;;;5050928;28;20147;-76
2023/10/18 06:37:01;;;;;;;19.75;5.80;;;12.60;99.90;;;;;;5049768;28;20029;-77
2023/10/18 06:39:34;;;;;;;26.10;6.28;;;12.70;99.90;;;;;;5032350;28;20037;-77
2023/10/18 06:42:06;;;;;;;16.88;5.80;;;12.60;99.90;;;;;;5049651;28;20057;-74
2023/10/18 06:44:34;;;;;;;27.23;6.45;;;12.70;99.90;;;;;;5050332;28;20054;-77
2023/10/18 06:47:06;;;;;;;18.83;6.00;;;12.70;99.90;;;;;;5049763;28;20545;-76
2023/10/18 06:49:32;;;;;;;18.98;6.13;;;12.70;99.90;;;;;;5050463;28;20029;-76
2023/10/18 06:52:00;;;;;;;27.10;7.45;;;12.70;99.90;;;;;;5049816;28;20095;-77
2023/10/18 06:54:31;;;;;;;21.60;6.45;;;12.70;99.90;;;;;;5050308;28;20051;-76
2023/10/18 06:57:15;;;;;;;27.50;6.65;;;12.70;99.90;;;;;;5031998;28;20044;-77
2023/10/18 06:59:44;;;;;;;19.17;6.82;;;12.70;99.90;;;;;;5033098;28;20372;-76
2023/10/18 07:02:12;;;;;;;21.33;6.78;;;12.80;99.90;;;;;;5050389;28;20124;-76
2023/10/18 07:04:38;;;;;;;20.95;6.95;;;12.80;99.90;;;;;;5050342;28;20065;-76
2023/10/18 07:07:13;;;;;;;30.10;7.65;;;12.80;99.90;;;;;;5051796;28;20325;-77
2023/10/18 07:09:42;;;;;;;27.02;8.05;;;12.90;99.90;;;;;;5050698;28;20053;-76
2023/10/18 07:12:11;;;;;;;38.30;8.45;;;12.90;99.90;;;;;;5049808;28;20079;-75
2023/10/18 07:14:41;;;;;;;24.35;6.95;;;12.90;99.90;;;;;;5051589;28;20498;-74
2023/10/18 07:17:09;;;;;;;30.60;8.13;;;12.90;99.90;;;;;;5050375;28;20103;-77
2023/10/18 07:19:48;;;;;;;22.85;7.78;;;12.90;99.90;;;;;;5052245;28;20028;-77
2023/10/18 07:22:27;;;;;;;19.73;6.57;;;12.90;99.90;;;;;;5057789;28;20525;-77
2023/10/18 07:24:59;;;;;;;17.05;7.28;;;12.90;99.90;;;;;;5055695;28;20037;-77
2023/10/18 07:27:29;;;;;;;26.60;7.65;;;12.90;99.90;;;;;;5053013;28;20395;-77
2023/10/18 07:29:58;;;;;;;24.77;7.47;;;13.00;99.90;;;;;;5051084;28;20021;-79
2023/10/18 07:32:24;;;;;;;17.73;8.20;;;12.90;99.90;;;;;;5052308;28;20203;-78
2023/10/18 07:34:54;;;;;;;19.10;7.28;;;13.00;99.90;;;;;;5059126;28;20063;-76
2023/10/18 07:37:32;;;;;;;22.30;7.70;;;13.00;99.90;;;;;;5073326;28;20460;-78
2023/10/18 07:39:59;;;;;;;24.67;7.55;;;13.00;99.90;;;;;;5075236;28;20463;-79
2023/10/18 07:42:34;;;;;;;23.92;7.70;;;13.10;99.90;;;;;;5059593;28;20035;-76
2023/10/18 07:45:08;;;;;;;31.10;7.63;;;13.10;99.90;;;;;;5077187;28;20028;-77
2023/10/18 07:47:37;;;;;;;26.55;7.80;;;13.00;99.90;;;;;;5073944;28;20024;-77
2023/10/18 07:52:54;;;;;;;19.27;7.07;;;13.00;99.90;;;;;;5074435;28;20040;-77
2023/10/18 07:55:21;;;;;;;27.08;7.38;;;13.00;99.90;;;;;;5075796;28;20064;-76
2023/10/18 07:57:50;;;;;;;27.88;7.40;;;13.10;99.90;;;;;;5075585;28;20024;-78
2023/10/18 08:00:23;;;;;;;20.45;7.00;;;13.10;99.90;;;;;;5073345;28;20093;-78
2023/10/18 08:02:52;;;;;;;20.88;7.28;;;13.10;99.90;;;;;;5057370;28;20359;-78
2023/10/18 08:05:21;;;;;;;29.60;7.72;;;13.10;99.90;;;;;;5073365;28;20118;-77
2023/10/18 08:07:55;;;;;;;23.70;7.63;;;13.10;99.90;;;;;;5073380;28;20103;-77
2023/10/18 08:10:21;;;;;;;29.05;8.23;;;13.10;99.90;;;;;;5055561;28;20121;-78
2023/10/18 08:13:11;;;;;;;30.00;9.10;;;13.10;99.90;;;;;;5073588;28;20055;-77
2023/10/18 08:15:36;;;;;;;22.40;8.15;;;13.10;99.90;;;;;;5058689;28;20135;-77
2023/10/18 08:18:14;;;;;;;27.50;7.63;;;13.20;99.90;;;;;;5072843;28;20027;-77
2023/10/18 08:26:05;;;;;;;27.13;7.70;;;13.20;99.90;;;;;;5073444;28;20177;-77
2023/10/18 08:28:38;;;;;;;25.40;8.02;;;13.20;99.90;;;;;;5073607;28;20181;-77
2023/10/18 08:31:17;;;;;;;30.95;7.53;;;13.30;99.90;;;;;;5073191;28;20063;-78
2023/10/18 08:33:43;;;;;;;30.35;8.20;;;13.30;99.90;;;;;;5073065;28;20025;-77
2023/10/18 08:36:15;;;;;;;28.80;7.50;;;13.30;99.90;;;;;;5072472;28;20127;-78
2023/10/18 08:38:41;;;;;;;23.35;7.40;;;13.30;99.90;;;;;;5073138;28;20020;-77
2023/10/18 08:41:16;;;;;;;20.35;6.95;;;13.30;99.90;;;;;;5072967;28;20033;-78
2023/10/18 08:44:15;;;;;;;22.38;7.25;;;13.30;99.90;;;;;;5073532;28;20024;-77
2023/10/18 08:46:43;;;;;;;32.03;8.27;;;13.40;99.90;;;;;;5065430;28;20041;-77
2023/10/18 08:49:15;;;;;;;20.23;7.97;;;13.40;99.90;;;;;;5071378;28;20103;-77
2023/10/18 08:51:45;;;;;;;28.45;7.10;;;13.40;99.90;;;;;;5073355;28;20165;-77
2023/10/18 08:54:22;;;;;;;20.13;8.43;;;13.30;99.90;;;;;;5073070;28;20139;-77
2023/10/18 08:56:51;;;;;;;27.40;8.10;;;13.30;99.90;;;;;;5072746;28;20145;-77
2023/10/18 08:59:24;;;;;;;23.02;8.35;;;13.30;99.90;;;;;;5054421;28;20078;-76
2023/10/18 09:02:09;;;;;;;23.13;7.65;;;13.40;99.90;;;;;;5055912;28;20063;-78
2023/10/18 09:04:35;;;;;;;21.65;7.03;;;13.40;99.90;;;;;;5072860;28;20032;-79
2023/10/18 09:07:18;;;;;;;28.17;7.95;;;13.40;99.90;;;;;;5083452;28;20040;-84
2023/10/18 09:09:54;;;;;;;25.05;7.05;;;13.40;99.90;;;;;;5088697;28;20020;-79
2023/10/18 09:12:33;;;;;;;25.00;7.15;;;13.50;99.90;;;;;;5086693;28;20041;-79
2023/10/18 09:14:59;;;;;;;22.85;7.60;;;13.40;99.90;;;;;;5073082;28;20029;-80
2023/10/18 09:17:25;;;;;;;29.33;8.43;;;13.50;99.90;;;;;;5072627;28;20028;-80
2023/10/18 09:19:55;;;;;;;33.50;7.28;;;13.40;99.90;;;;;;5054810;28;20029;-81
2023/10/18 09:22:21;;;;;;;19.77;7.03;;;13.50;99.90;;;;;;5072994;28;20036;-80
2023/10/18 09:24:47;;;;;;;19.38;6.35;;;13.50;99.90;;;;;;5073159;28;20107;-80
2023/10/18 09:27:13;;;;;;;26.17;7.25;;;13.50;99.90;;;;;;5072102;28;20131;-80
2023/10/18 09:29:39;;;;;;;22.92;7.13;;;13.50;99.90;;;;;;5054708;28;20090;-80
2023/10/18 09:32:10;;;;;;;21.52;6.63;;;13.50;99.90;;;;;;5053717;28;20477;-83
2023/10/18 09:34:42;;;;;;;20.27;6.22;;;13.50;99.90;;;;;;5071614;28;20043;-80
2023/10/18 09:37:13;;;;;;;26.05;5.75;;;13.50;99.90;;;;;;5071090;28;20060;-81
2023/10/18 09:39:42;;;;;;;14.45;5.03;;;13.60;99.90;;;;;;5053609;28;20033;-79
2023/10/18 09:42:20;;;;;;;16.52;5.57;;;13.60;99.90;;;;;;5053042;28;20097;-80
2023/10/18 09:44:45;;;;;;;16.95;5.53;;;13.60;99.90;;;;;;5053341;28;20124;-81
2023/10/18 09:47:12;;;;;;;23.02;4.70;;;13.60;99.90;;;;;;5071322;28;20104;-81
2023/10/18 09:49:41;;;;;;;22.90;4.60;;;13.60;99.90;;;;;;5071981;28;20036;-80
2023/10/18 09:52:13;;;;;;;18.65;4.80;;;13.60;99.90;;;;;;5052323;28;20075;-82
2023/10/18 09:54:52;;;;;;;10.60;4.13;;;13.70;99.90;;;;;;5053772;28;20106;-82
2023/10/18 09:57:24;;;;;;;13.48;4.25;;;13.60;99.90;;;;;;5070446;28;20357;-80
2023/10/18 09:59:55;;;;;;;10.55;4.05;;;13.70;99.90;;;;;;5053316;28;20021;-79
2023/10/18 10:02:21;;;;;;;12.90;4.10;;;13.60;99.90;;;;;;5070968;28;20067;-79
2023/10/18 10:05:03;;;;;;;14.48;4.65;;;13.70;99.90;;;;;;5071940;28;20033;-79
2023/10/18 10:07:37;;;;;;;23.10;6.55;;;13.70;99.90;;;;;;5053234;28;20029;-80
2023/10/18 10:10:17;;;;;;;28.23;6.68;;;13.70;99.90;;;;;;5070986;28;20102;-81
2023/10/18 10:12:45;;;;;;;26.33;7.28;;;13.70;99.90;;;;;;5070998;28;20039;-81
2023/10/18 10:15:13;;;;;;;21.63;6.20;;;13.70;99.90;;;;;;5070418;28;20066;-80
2023/10/18 10:17:42;;;;;;;25.08;6.85;;;13.70;99.90;;;;;;5070556;28;20032;-80
2023/10/18 10:20:13;;;;;;;21.55;6.75;;;13.70;99.90;;;;;;5069942;28;20448;-80
2023/10/18 10:22:43;;;;;;;22.13;6.57;;;13.70;99.90;;;;;;5070152;28;20497;-81
2023/10/18 10:25:19;;;;;;;27.27;7.47;;;13.70;99.90;;;;;;5070114;28;20467;-80
2023/10/18 10:27:53;;;;;;;24.33;7.20;;;13.70;99.90;;;;;;5052389;28;20039;-80
2023/10/18 10:33:00;;;;;;;20.42;7.03;;;13.70;99.90;;;;;;5070596;28;20096;-81
2023/10/18 10:35:29;;;;;;;23.77;6.70;;;13.80;99.90;;;;;;5051667;28;20032;-79
2023/10/18 10:41:33;;;;;;;29.45;7.45;;;13.80;99.90;;;;;;5014399;28;20071;-80
2023/10/18 10:44:54;;;;;;;24.63;7.70;;;13.80;99.90;;;;;;5065641;28;20395;-82
2023/10/18 10:47:29;;;;;;;29.15;7.55;;;13.80;99.90;;;;;;5064303;28;20052;-81
2023/10/18 10:50:00;;;;;;;26.73;6.20;;;13.90;99.90;;;;;;5070018;28;20066;-79
2023/10/18 10:52:30;;;;;;;19.92;6.05;;;13.90;99.90;;;;;;5069787;28;20028;-79
2023/10/18 10:55:16;;;;;;;18.92;5.88;;;13.90;99.90;;;;;;5052421;28;20044;-80
2023/10/18 10:57:43;;;;;;;25.15;6.90;;;14.00;99.90;;;;;;5050732;28;20025;-82
2023/10/18 11:03:33;;;;;;;26.83;6.72;;;14.00;99.90;;;;;;5038919;28;20503;-80
2023/10/18 11:05:59;;;;;;;27.00;6.40;;;14.00;99.90;;;;;;5050700;28;20142;-79
2023/10/18 11:08:29;;;;;;;21.83;6.10;;;14.00;99.90;;;;;;5049594;28;20056;-80
2023/10/18 11:10:57;;;;;;;17.75;6.00;;;14.00;99.90;;;;;;5048590;28;20080;-79
2023/10/18 11:13:24;;;;;;;24.48;6.55;;;14.00;99.90;;;;;;5048885;28;20024;-80
2023/10/18 11:15:54;;;;;;;20.35;6.18;;;14.10;99.90;;;;;;5050486;28;20037;-81
2023/10/18 11:18:20;;;;;;;24.75;6.47;;;14.10;99.90;;;;;;5049429;28;20458;-80
2023/10/18 11:21:05;;;;;;;23.90;6.50;;;14.10;99.90;;;;;;5050398;28;20081;-80
2023/10/18 11:23:37;;;;;;;25.17;5.95;;;14.10;99.90;;;;;;5051199;28;20029;-80
2023/10/18 11:26:09;;;;;;;19.25;6.13;;;14.10;99.90;;;;;;5055987;28;20033;-80
2023/10/18 11:28:37;;;;;;;19.25;6.25;;;14.20;99.90;;;;;;5070342;28;20037;-80
2023/10/18 11:31:04;;;;;;;19.33;6.45;;;14.20;99.90;;;;;;5071048;28;20024;-80
2023/10/18 11:33:37;;;;;;;21.85;6.57;;;14.10;99.90;;;;;;5069130;28;20024;-79
2023/10/18 11:36:08;;;;;;;24.00;6.32;;;14.20;99.90;;;;;;5069580;28;20029;-81
2023/10/18 11:38:34;;;;;;;26.20;6.90;;;14.20;99.90;;;;;;5070338;28;20044;-80
2023/10/18 11:41:09;;;;;;;31.02;7.03;;;14.20;99.90;;;;;;5069596;28;20043;-79
2023/10/18 11:43:39;;;;;;;26.83;6.90;;;14.20;99.90;;;;;;5071150;28;20071;-79
2023/10/18 11:46:08;;;;;;;24.35;6.82;;;14.20;99.90;;;;;;5069221;28;20047;-82
2023/10/18 11:48:35;;;;;;;24.58;6.80;;;14.30;99.90;;;;;;5069670;28;20029;-81
2023/10/18 11:51:06;;;;;;;26.75;7.43;;;14.30;99.90;;;;;;5052087;28;20371;-81
2023/10/18 11:53:32;;;;;;;30.20;6.05;;;14.30;99.90;;;;;;5069491;28;20048;-81
2023/10/18 11:56:09;;;;;;;23.05;5.90;;;14.30;99.90;;;;;;5070171;28;20029;-81
2023/10/18 11:58:35;;;;;;;20.17;5.70;;;14.30;99.90;;;;;;5029823;28;20025;-80
2023/10/18 12:01:23;;;;;;;20.75;6.22;;;14.40;99.90;;;;;;5064046;28;20128;-80
2023/10/18 12:03:55;;;;;;;20.27;6.47;;;14.50;99.90;;;;;;5059617;28;20029;-80
2023/10/18 12:06:22;;;;;;;28.73;7.05;;;14.50;99.90;;;;;;5046562;28;20047;-80
2023/10/18 12:09:07;;;;;;;27.42;7.05;;;14.50;99.90;;;;;;5030566;28;20048;-80
2023/10/18 12:11:33;;;;;;;22.50;6.32;;;14.50;99.90;;;;;;5049442;28;20460;-79
2023/10/18 12:13:59;;;;;;;22.98;6.93;;;14.40;99.90;;;;;;5049342;28;20067;-80
2023/10/18 12:16:25;;;;;;;20.92;6.47;;;14.50;99.90;;;;;;5048434;28;20033;-80
2023/10/18 12:18:52;;;;;;;33.70;7.43;;;14.40;99.90;;;;;;5050292;28;20079;-80
2023/10/18 12:21:20;;;;;;;26.42;7.15;;;14.30;99.90;;;;;;5031585;28;20021;-80
2023/10/18 12:23:46;;;;;;;21.42;6.32;;;14.30;99.90;;;;;;5032860;28;20032;-79
2023/10/18 12:26:12;;;;;;;18.33;6.05;;;14.20;99.90;;;;;;5052997;28;20120;-81
2023/10/18 12:28:38;;;;;;;27.40;6.97;;;14.20;99.90;;;;;;5036332;28;20499;-80
2023/10/18 12:31:12;;;;;;;27.52;7.82;;;14.10;99.90;;;;;;5053558;28;20432;-80
2023/10/18 12:33:40;;;;;;;22.10;7.47;;;14.00;99.90;;;;;;5053034;28;20055;-80
2023/10/18 12:36:22;;;;;;;19.25;7.40;;;14.10;99.90;;;;;;5052594;28;20109;-80
2023/10/18 12:38:48;;;;;;;20.23;6.90;;;14.00;99.90;;;;;;5054253;28;20055;-80
2023/10/18 12:41:27;;;;;;;21.67;7.38;;;14.00;99.90;;;;;;5052655;28;20028;-81
2023/10/18 12:43:53;;;;;;;26.90;7.53;;;14.00;99.90;;;;;;5053669;28;20424;-81
2023/10/18 12:46:22;;;;;;;22.85;7.20;;;14.00;99.90;;;;;;5053094;28;20037;-80
2023/10/18 12:48:51;;;;;;;25.08;8.20;;;13.90;99.90;;;;;;5053927;28;20029;-80
2023/10/18 12:51:18;;;;;;;28.25;7.38;;;13.90;99.90;;;;;;5054161;28;20049;-81
2023/10/18 12:53:47;;;;;;;26.02;7.90;;;13.90;99.90;;;;;;5060198;28;20049;-81
2023/10/18 12:58:59;;;;;;;28.75;7.30;;;13.90;99.90;;;;;;5053253;28;20368;-80
2023/10/18 13:01:42;;;;;;;28.55;7.72;;;13.90;99.90;;;;;;5053276;28;20035;-80
2023/10/18 13:04:17;;;;;;;24.42;7.88;;;13.90;99.90;;;;;;5052740;28;20124;-83
2023/10/18 13:06:46;;;;;;;21.77;8.13;;;13.90;99.90;;;;;;5035254;28;20029;-80
2023/10/18 13:09:16;;;;;;;26.77;7.53;;;13.90;99.90;;;;;;5052867;28;20025;-82
2023/10/18 13:14:29;;;;;;;26.55;7.22;;;14.00;99.90;;;;;;5052290;28;20186;-80
2023/10/18 13:16:56;;;;;;;25.75;7.82;;;14.00;99.90;;;;;;5052615;28;20357;-80
2023/10/18 13:19:24;;;;;;;21.60;7.35;;;14.00;99.90;;;;;;5051690;28;20092;-80
2023/10/18 13:21:50;;;;;;;27.23;8.20;;;14.00;99.90;;;;;;5052064;28;20470;-79
2023/10/18 13:26:53;;;;;;;25.65;7.97;;;14.00;99.90;;;;;;5052359;28;20440;-80
2023/10/18 13:31:45;;;;;;;27.63;7.95;;;14.10;99.90;;;;;;5060048;28;20029;-82
2023/10/18 13:34:20;;;;;;;20.95;6.93;;;14.00;99.90;;;;;;5071911;28;20024;-84
2023/10/18 13:36:53;;;;;;;27.02;7.40;;;14.10;99.90;;;;;;5071215;28;20104;-79
2023/10/18 13:39:23;;;;;;;26.25;7.55;;;14.10;99.90;;;;;;5053113;28;20028;-81
2023/10/18 13:41:49;;;;;;;22.58;7.57;;;14.10;99.90;;;;;;5053829;28;20028;-80
2023/10/18 13:44:23;;;;;;;21.52;6.40;;;14.00;99.90;;;;;;5070582;28;20029;-80
2023/10/18 13:46:54;;;;;;;22.15;6.90;;;14.00;99.90;;;;;;5071262;28;20024;-80
2023/10/18 13:49:23;;;;;;;25.53;7.93;;;14.00;99.90;;;;;;5070406;28;20028;-81